Time;durP1;ratioP1;P1;durP2;ratioP2;P2;SDS_P1;SDS_P2;PMS_P1;PMS_P2;Temp;Humidity;BMP_temperature;BMP_pressure;BME280_temperature;BME280_humidity;BME280_pressure;Samples;Min_cycle;Max_cycle;Signal;HPM_P1;HPM_P2
2023/01/24 00:00:11;;;;;;;1.70;1.40;;;3.60;98.20;;;;;;5018334;28;20588;-73
2023/01/24 00:02:39;;;;;;;1.70;1.40;;;3.50;98.20;;;;;;5014327;28;20838;-73
2023/01/24 00:05:07;;;;;;;1.70;1.60;;;3.60;98.20;;;;;;5012317;28;21001;-73
2023/01/24 00:07:34;;;;;;;1.70;1.50;;;3.50;98.20;;;;;;5012749;28;20861;-73
2023/01/24 00:10:01;;;;;;;1.60;1.40;;;3.60;98.20;;;;;;5018640;28;20887;-73
2023/01/24 00:12:29;;;;;;;1.60;1.40;;;3.50;98.20;;;;;;5012659;28;20911;-73
2023/01/24 00:14:57;;;;;;;1.70;1.40;;;3.60;98.20;;;;;;5018294;28;20980;-73
2023/01/24 00:17:25;;;;;;;1.63;1.40;;;3.50;98.20;;;;;;5010845;28;21018;-73
2023/01/24 00:19:53;;;;;;;1.70;1.50;;;3.50;98.20;;;;;;5013960;28;20467;-72
2023/01/24 00:22:20;;;;;;;1.60;1.40;;;3.50;98.20;;;;;;5016893;28;20464;-73
2023/01/24 00:24:48;;;;;;;1.63;1.40;;;3.50;98.20;;;;;;5018164;28;21060;-73
2023/01/24 00:27:15;;;;;;;1.70;1.50;;;3.50;98.20;;;;;;5022075;28;20556;-73
2023/01/24 00:29:43;;;;;;;1.60;1.40;;;3.60;98.20;;;;;;5013308;28;20518;-72
2023/01/24 00:32:10;;;;;;;1.63;1.40;;;3.60;98.20;;;;;;5027456;28;20461;-73
2023/01/24 00:34:37;;;;;;;1.63;1.40;;;3.60;98.20;;;;;;5015250;28;20600;-72
2023/01/24 00:37:05;;;;;;;1.70;1.40;;;3.60;98.20;;;;;;5009277;28;20543;-73
2023/01/24 00:39:32;;;;;;;1.63;1.40;;;3.60;98.20;;;;;;5009137;28;20491;-73
2023/01/24 00:41:59;;;;;;;1.70;1.40;;;3.50;98.20;;;;;;5012484;28;20497;-73
2023/01/24 00:44:26;;;;;;;1.60;1.40;;;3.50;98.20;;;;;;5012179;28;20695;-72
2023/01/24 00:46:54;;;;;;;1.63;1.40;;;3.50;98.20;;;;;;5010346;28;20493;-73
2023/01/24 00:49:21;;;;;;;1.60;1.40;;;3.50;98.20;;;;;;5011583;28;20492;-73
2023/01/24 00:51:48;;;;;;;1.60;1.40;;;3.50;98.20;;;;;;5013157;28;20460;-73
2023/01/24 00:54:16;;;;;;;1.60;1.40;;;3.50;98.20;;;;;;5011614;28;20515;-73
2023/01/24 00:56:43;;;;;;;1.70;1.40;;;3.50;98.20;;;;;;5023899;28;20452;-73
2023/01/24 00:59:10;;;;;;;1.70;1.40;;;3.50;98.20;;;;;;5014814;28;20495;-73
2023/01/24 01:01:37;;;;;;;1.70;1.50;;;3.50;98.20;;;;;;5018601;28;20537;-72
2023/01/24 01:04:05;;;;;;;1.67;1.40;;;3.50;98.20;;;;;;5017205;28;20655;-73
2023/01/24 01:06:32;;;;;;;1.70;1.40;;;3.50;98.20;;;;;;5009930;28;20615;-72
2023/01/24 01:08:59;;;;;;;1.67;1.40;;;3.50;98.20;;;;;;5011112;28;20483;-73
2023/01/24 01:11:27;;;;;;;1.70;1.60;;;3.50;98.20;;;;;;5010290;28;20714;-73
2023/01/24 01:13:56;;;;;;;1.70;1.50;;;3.40;98.20;;;;;;5010078;28;20467;-73
2023/01/24 01:16:24;;;;;;;1.70;1.50;;;3.50;98.20;;;;;;5017340;28;20828;-73
2023/01/24 01:18:54;;;;;;;1.70;1.40;;;3.50;98.20;;;;;;5018402;28;20499;-73
2023/01/24 01:21:23;;;;;;;1.67;1.40;;;3.50;98.20;;;;;;5015651;28;20567;-73
2023/01/24 01:23:50;;;;;;;1.70;1.50;;;3.50;98.20;;;;;;5019194;28;20455;-73
2023/01/24 01:26:19;;;;;;;1.70;1.40;;;3.40;98.20;;;;;;5018783;28;20538;-73
2023/01/24 01:28:47;;;;;;;1.60;1.40;;;3.40;98.20;;;;;;5021704;28;20539;-73
2023/01/24 01:31:14;;;;;;;2.27;2.07;;;3.40;98.20;;;;;;5013784;28;20965;-73
2023/01/24 01:33:41;;;;;;;1.70;1.57;;;3.40;98.20;;;;;;5017850;28;20459;-73
2023/01/24 01:36:09;;;;;;;1.60;1.40;;;3.40;98.20;;;;;;5020154;28;20551;-73
2023/01/24 01:38:36;;;;;;;1.70;1.50;;;3.40;98.20;;;;;;5021038;28;20490;-73
2023/01/24 01:41:04;;;;;;;3.13;2.33;;;3.40;98.20;;;;;;5012207;28;20463;-74
2023/01/24 01:43:31;;;;;;;1.63;1.40;;;3.40;98.20;;;;;;5016416;28;20533;-74
2023/01/24 01:46:08;;;;;;;1.70;1.60;;;3.30;98.20;;;;;;5022720;28;20852;-73
2023/01/24 01:48:39;;;;;;;1.63;1.40;;;3.30;98.20;;;;;;5015842;28;20460;-73
2023/01/24 01:51:13;;;;;;;1.70;1.50;;;3.40;98.20;;;;;;5010621;28;20514;-74
2023/01/24 01:53:45;;;;;;;1.60;1.30;;;3.40;98.20;;;;;;5011749;28;20492;-75
2023/01/24 01:56:16;;;;;;;1.60;1.40;;;3.40;98.20;;;;;;5016055;28;20464;-73
2023/01/24 01:58:44;;;;;;;1.60;1.30;;;3.40;98.20;;;;;;5010825;28;20492;-74
2023/01/24 02:01:12;;;;;;;1.63;1.40;;;3.30;98.20;;;;;;5023584;28;20467;-72
2023/01/24 02:03:44;;;;;;;1.70;1.60;;;3.40;98.20;;;;;;5017556;28;20456;-74
2023/01/24 02:06:28;;;;;;;1.60;1.40;;;3.40;98.20;;;;;;5016215;28;20464;-74
2023/01/24 02:08:57;;;;;;;1.67;1.40;;;3.30;98.20;;;;;;5010674;28;20546;-73
2023/01/24 02:11:41;;;;;;;1.63;1.30;;;3.30;98.20;;;;;;5014402;28;20953;-73
2023/01/24 02:16:57;;;;;;;1.63;1.40;;;3.30;98.20;;;;;;5017833;28;20483;-73
2023/01/24 02:19:42;;;;;;;1.70;1.50;;;3.30;98.20;;;;;;5021584;28;20859;-75
2023/01/24 02:22:18;;;;;;;1.67;1.40;;;3.30;98.20;;;;;;5010073;28;20472;-75
2023/01/24 02:24:55;;;;;;;1.70;1.60;;;3.30;98.20;;;;;;5010618;28;20484;-73
2023/01/24 02:27:24;;;;;;;1.63;1.40;;;3.30;98.20;;;;;;5015777;28;20464;-73
2023/01/24 02:29:51;;;;;;;1.63;1.40;;;3.30;98.20;;;;;;5009730;28;20460;-74
2023/01/24 02:32:20;;;;;;;1.70;1.40;;;3.30;98.20;;;;;;5010111;28;20468;-73
2023/01/24 02:34:47;;;;;;;1.63;1.40;;;3.30;98.20;;;;;;5010286;28;20488;-74
2023/01/24 02:37:14;;;;;;;1.63;1.40;;;3.30;98.20;;;;;;5008386;28;20472;-73
2023/01/24 02:39:46;;;;;;;1.60;1.40;;;3.30;98.20;;;;;;5009310;28;20949;-74
2023/01/24 02:42:16;;;;;;;1.60;1.40;;;3.30;98.20;;;;;;5019046;28;20464;-72
2023/01/24 02:44:51;;;;;;;1.60;1.40;;;3.20;98.20;;;;;;5008366;28;21690;-72
2023/01/24 02:47:18;;;;;;;1.60;1.40;;;3.20;98.20;;;;;;5013137;28;20463;-72
2023/01/24 02:49:45;;;;;;;1.67;1.40;;;3.20;98.20;;;;;;5017390;28;20916;-72
2023/01/24 02:55:11;;;;;;;3.00;2.80;;;3.20;98.20;;;;;;4957024;28;20467;-72
2023/01/24 03:00:24;;;;;;;1.63;1.47;;;3.10;98.20;;;;;;4988491;28;20474;-72
2023/01/24 03:02:51;;;;;;;1.67;1.40;;;3.10;98.20;;;;;;5012697;28;20566;-72
2023/01/24 03:05:19;;;;;;;3.70;2.60;;;3.10;98.20;;;;;;5023698;28;20605;-72
2023/01/24 03:07:45;;;;;;;1.67;1.50;;;3.10;98.20;;;;;;5015351;28;20464;-72
2023/01/24 03:10:15;;;;;;;2.67;2.47;;;3.20;98.20;;;;;;5020427;28;20462;-72
2023/01/24 03:34:48;;;;;;;1.70;1.60;;;3.10;98.20;;;;;;5012108;28;20467;-72
2023/01/24 03:37:17;;;;;;;1.70;1.50;;;3.10;98.20;;;;;;5013069;28;20496;-72
2023/01/24 03:39:58;;;;;;;1.70;1.50;;;3.10;98.20;;;;;;5016256;28;20494;-73
2023/01/24 03:42:26;;;;;;;2.90;2.70;;;3.10;98.20;;;;;;5013464;28;20487;-72
2023/01/24 03:44:54;;;;;;;1.63;1.40;;;3.10;98.20;;;;;;5016826;28;20491;-72
2023/01/24 03:47:22;;;;;;;1.70;1.50;;;3.00;98.20;;;;;;5017996;28;20499;-72
2023/01/24 03:52:33;;;;;;;2.57;2.37;;;3.00;98.20;;;;;;5014567;28;20450;-72
2023/01/24 03:55:01;;;;;;;2.20;2.00;;;3.00;98.20;;;;;;5007577;28;20997;-72
2023/01/24 03:57:29;;;;;;;1.70;1.40;;;3.00;98.20;;;;;;5012235;28;20902;-72
2023/01/24 03:59:57;;;;;;;1.70;1.50;;;3.00;98.20;;;;;;5024134;28;20578;-72
2023/01/24 04:02:25;;;;;;;2.47;2.27;;;3.00;98.20;;;;;;5011833;28;20474;-72
2023/01/24 04:07:36;;;;;;;1.63;1.40;;;3.00;98.20;;;;;;5005496;28;20447;-72
2023/01/24 04:10:04;;;;;;;1.70;1.50;;;3.00;98.20;;;;;;5014400;28;20897;-72
2023/01/24 04:12:31;;;;;;;1.67;1.40;;;3.00;98.20;;;;;;5013147;28;20460;-72
2023/01/24 04:14:58;;;;;;;1.70;1.50;;;3.00;98.20;;;;;;5008040;28;20862;-72
2023/01/24 04:17:26;;;;;;;1.70;1.50;;;3.00;98.20;;;;;;5006694;28;20861;-73
2023/01/24 04:19:53;;;;;;;1.70;1.50;;;3.00;98.20;;;;;;5014995;28;20519;-72
2023/01/24 04:22:20;;;;;;;1.63;1.40;;;3.10;98.20;;;;;;5019283;28;20464;-72
2023/01/24 04:24:47;;;;;;;1.60;1.33;;;3.10;98.20;;;;;;5015381;28;21083;-72
2023/01/24 04:27:14;;;;;;;1.67;1.43;;;3.00;98.20;;;;;;5019414;28;20451;-73
2023/01/24 04:29:41;;;;;;;1.67;1.40;;;3.00;98.20;;;;;;5025648;28;20451;-72
2023/01/24 04:32:08;;;;;;;1.63;1.40;;;3.00;98.20;;;;;;5009759;28;20541;-72
2023/01/24 04:34:37;;;;;;;1.60;1.40;;;3.00;98.20;;;;;;5023329;28;20482;-72
2023/01/24 04:37:04;;;;;;;1.67;1.50;;;3.00;98.20;;;;;;5022003;28;20865;-72
2023/01/24 04:39:31;;;;;;;1.60;1.40;;;3.00;98.20;;;;;;5025474;28;20491;-72
2023/01/24 04:41:58;;;;;;;1.67;1.43;;;3.00;98.20;;;;;;5025808;28;21089;-72
2023/01/24 04:44:26;;;;;;;1.60;1.40;;;3.00;98.20;;;;;;5026664;28;20510;-72
2023/01/24 04:46:52;;;;;;;1.70;1.50;;;3.00;98.20;;;;;;5021006;28;20470;-71
2023/01/24 04:49:19;;;;;;;1.67;1.40;;;3.00;98.20;;;;;;5021471;28;20459;-72
2023/01/24 04:51:49;;;;;;;1.70;1.40;;;3.00;98.20;;;;;;5023778;28;20459;-72
2023/01/24 04:54:17;;;;;;;1.67;1.50;;;3.00;98.20;;;;;;5023604;28;20577;-72
2023/01/24 04:56:44;;;;;;;1.80;1.70;;;3.00;98.20;;;;;;5024262;28;20912;-71
2023/01/24 04:59:13;;;;;;;1.70;1.50;;;3.00;98.20;;;;;;5024912;28;20499;-72
2023/01/24 05:01:40;;;;;;;1.70;1.40;;;3.00;98.20;;;;;;5018885;28;20464;-72
2023/01/24 05:04:07;;;;;;;1.70;1.40;;;3.00;98.20;;;;;;5022648;28;20805;-72
2023/01/24 05:06:35;;;;;;;1.70;1.50;;;3.00;98.20;;;;;;5025043;28;20463;-72
2023/01/24 05:09:04;;;;;;;1.70;1.40;;;2.90;98.20;;;;;;5017090;28;20472;-72
2023/01/24 05:11:31;;;;;;;1.70;1.40;;;2.90;98.20;;;;;;5021199;28;20464;-72
2023/01/24 05:13:58;;;;;;;1.67;1.40;;;3.00;98.20;;;;;;5023494;28;20459;-75
2023/01/24 05:16:25;;;;;;;1.63;1.40;;;3.00;98.20;;;;;;5022762;28;20475;-75
2023/01/24 05:18:52;;;;;;;1.70;1.50;;;2.90;98.20;;;;;;5022682;28;20479;-73
2023/01/24 05:21:19;;;;;;;1.63;1.40;;;2.90;98.20;;;;;;5021395;28;20552;-73
2023/01/24 05:23:51;;;;;;;1.63;1.40;;;2.90;98.20;;;;;;5019434;28;20463;-73
2023/01/24 05:26:19;;;;;;;1.70;1.50;;;2.90;98.20;;;;;;5022684;28;21520;-72
2023/01/24 05:28:46;;;;;;;1.63;1.40;;;2.90;98.20;;;;;;5022346;28;20550;-72
2023/01/24 05:31:13;;;;;;;1.70;1.40;;;2.90;98.20;;;;;;5024136;28;20482;-73
2023/01/24 05:33:40;;;;;;;1.70;1.50;;;2.90;98.20;;;;;;5024622;28;20487;-73
2023/01/24 05:36:09;;;;;;;1.60;1.40;;;2.90;98.20;;;;;;5023532;28;20501;-73
2023/01/24 05:38:37;;;;;;;1.70;1.50;;;2.90;98.20;;;;;;5022229;28;20591;-73
2023/01/24 05:41:05;;;;;;;1.63;1.40;;;2.90;98.20;;;;;;5022672;28;20471;-73
2023/01/24 05:43:34;;;;;;;1.63;1.40;;;2.90;98.20;;;;;;5022017;28;20471;-73
2023/01/24 05:46:03;;;;;;;1.67;1.40;;;2.90;98.20;;;;;;5021525;28;20896;-73
2023/01/24 05:48:31;;;;;;;1.67;1.50;;;2.80;98.20;;;;;;5016743;28;20490;-72
2023/01/24 05:50:59;;;;;;;1.70;1.60;;;2.80;98.20;;;;;;5022012;28;20461;-73
2023/01/24 05:53:27;;;;;;;1.67;1.40;;;2.80;98.20;;;;;;5023959;28;20459;-73
2023/01/24 05:55:58;;;;;;;1.63;1.50;;;2.80;98.20;;;;;;5024109;28;21012;-73
2023/01/24 05:58:26;;;;;;;1.63;1.50;;;2.80;98.20;;;;;;5022874;28;20560;-75
2023/01/24 06:01:07;;;;;;;1.70;1.60;;;2.80;98.20;;;;;;5028365;28;20483;-75
2023/01/24 06:03:34;;;;;;;1.60;1.40;;;2.80;98.20;;;;;;5020877;28;20463;-71
2023/01/24 06:06:02;;;;;;;1.70;1.57;;;2.80;98.20;;;;;;5023568;28;21000;-74
2023/01/24 06:08:28;;;;;;;1.70;1.50;;;2.80;98.20;;;;;;5023899;28;20867;-74
2023/01/24 06:10:55;;;;;;;1.63;1.50;;;2.80;98.20;;;;;;5022848;28;20455;-74
2023/01/24 06:13:25;;;;;;;1.67;1.40;;;2.80;98.20;;;;;;5025645;28;20464;-73
2023/01/24 06:15:52;;;;;;;1.63;1.40;;;2.80;98.20;;;;;;5026938;28;20621;-74
2023/01/24 06:18:24;;;;;;;1.70;1.50;;;2.90;98.20;;;;;;5027107;28;20459;-73
2023/01/24 06:20:52;;;;;;;1.70;1.50;;;2.80;98.20;;;;;;5027041;28;20479;-72
2023/01/24 06:23:25;;;;;;;3.07;2.87;;;2.80;98.20;;;;;;5029366;28;20471;-73
2023/01/24 06:25:54;;;;;;;1.70;1.60;;;2.80;98.20;;;;;;5026375;28;21024;-73
2023/01/24 06:28:22;;;;;;;1.63;1.40;;;2.80;98.20;;;;;;5029836;28;20601;-74
2023/01/24 06:30:57;;;;;;;1.70;1.50;;;2.80;98.20;;;;;;5027295;28;20542;-74
2023/01/24 06:33:36;;;;;;;1.73;1.63;;;2.80;98.20;;;;;;5029277;28;20515;-74
2023/01/24 06:36:31;;;;;;;1.60;1.40;;;2.80;98.20;;;;;;5024508;28;21054;-74
2023/01/24 06:38:59;;;;;;;1.63;1.40;;;2.80;98.20;;;;;;5028295;28;20475;-74
2023/01/24 06:41:26;;;;;;;1.70;1.60;;;2.80;98.20;;;;;;5031544;28;20467;-71
2023/01/24 06:43:54;;;;;;;1.67;1.50;;;2.80;98.20;;;;;;5027652;28;20462;-72
2023/01/24 06:46:21;;;;;;;1.70;1.50;;;2.80;98.20;;;;;;5027646;28;20455;-71
2023/01/24 06:48:49;;;;;;;1.70;1.50;;;2.80;98.20;;;;;;5025124;28;20455;-71
2023/01/24 06:51:16;;;;;;;1.70;1.60;;;2.80;98.20;;;;;;5026906;28;20717;-72
2023/01/24 06:53:44;;;;;;;1.67;1.40;;;2.80;98.20;;;;;;5028154;28;20545;-71
2023/01/24 06:56:11;;;;;;;1.60;1.40;;;2.80;98.20;;;;;;5022507;28;20538;-71
2023/01/24 06:58:39;;;;;;;1.67;1.47;;;2.80;98.20;;;;;;5027950;28;20467;-71
2023/01/24 07:01:06;;;;;;;1.60;1.43;;;2.80;98.20;;;;;;5027371;28;20976;-72
2023/01/24 07:03:34;;;;;;;1.70;1.60;;;2.80;98.20;;;;;;5026266;28;21203;-72
2023/01/24 07:06:03;;;;;;;1.60;1.40;;;2.80;98.20;;;;;;5030395;28;20479;-72
2023/01/24 07:08:30;;;;;;;1.70;1.60;;;2.80;98.20;;;;;;5030645;28;20460;-73
2023/01/24 07:10:58;;;;;;;1.67;1.47;;;2.80;98.20;;;;;;5028379;28;20460;-71
2023/01/24 07:13:26;;;;;;;1.70;1.60;;;2.80;98.20;;;;;;5027780;28;20831;-71
2023/01/24 07:15:53;;;;;;;1.70;1.50;;;2.80;98.20;;;;;;5022077;28;20534;-71
2023/01/24 07:18:21;;;;;;;1.63;1.40;;;2.80;98.20;;;;;;5021383;28;20531;-71
2023/01/24 07:20:49;;;;;;;1.60;1.40;;;2.80;98.20;;;;;;5028879;28;20960;-73
2023/01/24 07:23:27;;;;;;;1.70;1.50;;;2.80;98.20;;;;;;5026341;28;20467;-71
2023/01/24 07:25:56;;;;;;;1.63;1.43;;;2.90;98.20;;;;;;5027162;28;20605;-72
2023/01/24 07:28:23;;;;;;;1.60;1.40;;;2.80;98.20;;;;;;5022245;28;20458;-71
2023/01/24 07:30:52;;;;;;;1.63;1.50;;;2.80;98.20;;;;;;5019559;28;21298;-72
2023/01/24 07:33:20;;;;;;;1.63;1.50;;;2.80;98.20;;;;;;5020420;28;20489;-72
2023/01/24 07:35:47;;;;;;;1.70;1.40;;;2.80;98.20;;;;;;5020252;28;20494;-73
2023/01/24 07:38:14;;;;;;;1.60;1.40;;;2.80;98.20;;;;;;5020296;28;20901;-72
2023/01/24 07:40:43;;;;;;;1.70;1.50;;;2.80;98.20;;;;;;5023905;28;20487;-72
2023/01/24 07:43:10;;;;;;;1.67;1.47;;;2.80;98.20;;;;;;5022821;28;20554;-73
2023/01/24 07:45:38;;;;;;;1.70;1.43;;;2.80;98.20;;;;;;5022224;28;20486;-73
2023/01/24 07:48:19;;;;;;;1.60;1.40;;;2.80;98.20;;;;;;5013724;28;20474;-79
2023/01/24 07:50:46;;;;;;;1.70;1.50;;;2.80;98.20;;;;;;5014333;28;20463;-72
2023/01/24 07:53:14;;;;;;;1.60;1.40;;;2.80;98.20;;;;;;5018989;28;21249;-72
2023/01/24 07:55:42;;;;;;;1.60;1.40;;;2.90;98.20;;;;;;5014050;28;20488;-73
2023/01/24 07:58:10;;;;;;;1.70;1.60;;;2.90;98.20;;;;;;5018003;28;20464;-72
2023/01/24 08:00:38;;;;;;;1.63;1.40;;;2.90;98.20;;;;;;5025230;28;20523;-72
2023/01/24 08:03:05;;;;;;;1.60;1.37;;;2.90;98.20;;;;;;5020340;28;20543;-72
2023/01/24 08:05:32;;;;;;;1.70;1.47;;;2.90;98.20;;;;;;5021366;28;20553;-73
2023/01/24 08:08:13;;;;;;;1.70;1.50;;;2.80;98.20;;;;;;5023834;28;20491;-71
2023/01/24 08:10:46;;;;;;;1.60;1.40;;;2.80;98.20;;;;;;5013319;28;20457;-72
2023/01/24 08:13:14;;;;;;;1.63;1.40;;;2.90;98.20;;;;;;5024140;28;20829;-72
2023/01/24 08:15:53;;;;;;;1.80;1.70;;;2.90;98.20;;;;;;5023648;28;21021;-72
2023/01/24 08:18:26;;;;;;;1.67;1.40;;;2.90;98.20;;;;;;5013484;28;20463;-72
2023/01/24 08:20:57;;;;;;;1.60;1.40;;;2.90;98.20;;;;;;5017002;28;20579;-71
2023/01/24 08:23:25;;;;;;;1.67;1.40;;;2.90;98.20;;;;;;5011879;28;20472;-73
2023/01/24 08:43:35;;;;;;;1.70;1.43;;;2.90;98.20;;;;;;6189377;22;20496;-72
2023/01/24 08:46:09;;;;;;;1.70;1.50;;;2.90;98.20;;;;;;6194571;23;20761;-72
2023/01/24 08:48:37;;;;;;;1.63;1.40;;;3.00;98.20;;;;;;6196475;23;20423;-72
2023/01/24 08:51:11;;;;;;;1.63;1.40;;;3.00;98.20;;;;;;6182567;23;20447;-71
2023/01/24 08:53:41;;;;;;;1.60;1.40;;;3.00;98.20;;;;;;6181976;23;20423;-72
2023/01/24 08:56:10;;;;;;;1.70;1.40;;;3.00;98.20;;;;;;6185883;23;20446;-72
2023/01/24 08:58:39;;;;;;;1.70;1.50;;;3.00;98.20;;;;;;6184818;23;20431;-71
2023/01/24 09:01:10;;;;;;;1.70;1.50;;;3.00;98.20;;;;;;6184250;23;20457;-71
2023/01/24 09:03:39;;;;;;;1.60;1.40;;;3.00;98.20;;;;;;6197562;23;20504;-72
2023/01/24 09:06:11;;;;;;;1.60;1.40;;;3.00;98.20;;;;;;6185489;23;20451;-72
2023/01/24 09:08:44;;;;;;;1.60;1.40;;;3.00;98.20;;;;;;6197998;23;20849;-72
2023/01/24 09:11:13;;;;;;;1.60;1.40;;;3.00;98.20;;;;;;6198075;23;20447;-73
2023/01/24 09:13:44;;;;;;;4.33;4.07;;;3.00;98.20;;;;;;6197728;23;20441;-72
2023/01/24 09:16:13;;;;;;;1.60;1.40;;;3.00;98.20;;;;;;6195864;23;20439;-72
2023/01/24 09:18:42;;;;;;;1.70;1.50;;;3.10;98.20;;;;;;6198039;23;20435;-73
2023/01/24 09:21:12;;;;;;;10.43;8.73;;;3.00;98.20;;;;;;6197475;23;20439;-71
2023/01/24 09:23:41;;;;;;;1.67;1.40;;;3.00;98.20;;;;;;6187507;23;20430;-74
2023/01/24 09:26:10;;;;;;;1.67;1.40;;;3.00;98.20;;;;;;6197095;23;20451;-72
2023/01/24 09:28:51;;;;;;;1.63;1.40;;;3.00;98.20;;;;;;6189674;23;20755;-74
2023/01/24 09:31:39;;;;;;;1.60;1.40;;;3.00;98.20;;;;;;6200457;23;20443;-73
2023/01/24 09:34:11;;;;;;;1.60;1.40;;;3.00;98.20;;;;;;6189698;23;20454;-72
2023/01/24 09:39:33;;;;;;;1.70;1.43;;;3.00;98.20;;;;;;6178790;23;20423;-73
2023/01/24 09:42:15;;;;;;;1.70;1.47;;;3.00;98.20;;;;;;6209372;23;20524;-73
2023/01/24 09:44:58;;;;;;;1.70;1.50;;;3.00;98.20;;;;;;6221275;23;20494;-72
2023/01/24 09:47:38;;;;;;;1.67;1.40;;;3.10;98.20;;;;;;6216806;23;20887;-72
2023/01/24 09:50:11;;;;;;;1.63;1.37;;;3.10;98.20;;;;;;6218722;23;20399;-73
2023/01/24 09:52:42;;;;;;;1.70;1.50;;;3.10;98.20;;;;;;6207472;23;20984;-72
2023/01/24 09:55:15;;;;;;;2.20;2.00;;;3.10;98.20;;;;;;6214200;23;20446;-72
2023/01/24 09:57:50;;;;;;;1.67;1.40;;;3.10;98.20;;;;;;6202589;23;20445;-72
2023/01/24 10:00:24;;;;;;;1.70;1.50;;;3.10;98.20;;;;;;6203296;23;20411;-72
2023/01/24 10:02:55;;;;;;;1.60;1.40;;;3.10;98.20;;;;;;6203838;23;20931;-74
2023/01/24 10:05:33;;;;;;;1.60;1.40;;;3.20;98.20;;;;;;6209267;23;20522;-74
2023/01/24 10:08:17;;;;;;;1.67;1.40;;;3.30;98.20;;;;;;6208322;23;20407;-73
2023/01/24 10:10:53;;;;;;;1.60;1.40;;;3.20;98.20;;;;;;6211230;23;20477;-73
2023/01/24 10:14:05;;;;;;;1.70;1.50;;;3.20;98.20;;;;;;6208618;23;20759;-73
2023/01/24 10:17:03;;;;;;;1.63;1.40;;;3.10;98.20;;;;;;6210302;23;20922;-74
2023/01/24 10:20:09;;;;;;;1.63;1.40;;;3.20;98.20;;;;;;6222302;23;20431;-73
2023/01/24 10:22:56;;;;;;;1.70;1.40;;;3.20;98.20;;;;;;6223913;23;20505;-73
2023/01/24 10:25:28;;;;;;;1.63;1.40;;;3.20;98.20;;;;;;6220076;23;20446;-73
2023/01/24 10:28:06;;;;;;;1.67;1.47;;;3.20;98.20;;;;;;6217255;23;20454;-73
2023/01/24 10:30:42;;;;;;;1.67;1.57;;;3.10;98.20;;;;;;6219650;23;20445;-73
2023/01/24 10:33:18;;;;;;;1.70;1.50;;;3.10;98.20;;;;;;6220877;23;20537;-73
2023/01/24 10:36:00;;;;;;;1.70;1.43;;;3.10;98.20;;;;;;6220442;23;20684;-73
2023/01/24 10:39:06;;;;;;;1.70;1.50;;;3.20;98.20;;;;;;6220571;23;20511;-73
2023/01/24 10:41:54;;;;;;;1.63;1.40;;;3.20;98.20;;;;;;6222072;23;20459;-72
2023/01/24 10:44:29;;;;;;;1.60;1.30;;;3.20;98.20;;;;;;6220079;23;21176;-73
2023/01/24 10:47:22;;;;;;;1.60;1.40;;;3.20;98.20;;;;;;6219075;23;20821;-72
2023/01/24 10:49:54;;;;;;;1.70;1.60;;;3.20;98.20;;;;;;6202979;23;20410;-72
2023/01/24 10:52:24;;;;;;;1.63;1.37;;;3.30;98.20;;;;;;6203869;23;20545;-74
2023/01/24 10:54:54;;;;;;;1.67;1.40;;;3.30;98.20;;;;;;6202497;23;20442;-73
2023/01/24 10:57:34;;;;;;;1.67;1.40;;;3.30;98.20;;;;;;6213074;23;20457;-73
2023/01/24 11:00:22;;;;;;;1.70;1.50;;;3.30;98.20;;;;;;6205257;23;21090;-74
2023/01/24 11:02:52;;;;;;;1.67;1.50;;;3.30;98.20;;;;;;6204401;23;20808;-72
2023/01/24 11:05:22;;;;;;;1.70;1.60;;;3.30;98.20;;;;;;6203777;23;20450;-72
2023/01/24 11:08:04;;;;;;;1.63;1.37;;;3.30;98.20;;;;;;6212497;23;20406;-72
2023/01/24 11:10:38;;;;;;;1.60;1.30;;;3.20;98.20;;;;;;6215928;23;21113;-72
2023/01/24 11:13:26;;;;;;;1.70;1.53;;;3.30;98.20;;;;;;6214373;23;20525;-72
2023/01/24 11:16:04;;;;;;;1.60;1.30;;;3.30;98.20;;;;;;6213539;23;21141;-72
2023/01/24 11:18:37;;;;;;;1.70;1.40;;;3.30;98.20;;;;;;6218944;23;20437;-73
2023/01/24 11:21:14;;;;;;;2.27;2.07;;;3.30;98.20;;;;;;6208503;23;20412;-73
2023/01/24 11:23:44;;;;;;;1.70;1.50;;;3.30;98.20;;;;;;6204806;23;20411;-73
2023/01/24 11:26:30;;;;;;;1.70;1.50;;;3.40;98.20;;;;;;6205174;23;20526;-73
2023/01/24 11:29:02;;;;;;;1.60;1.40;;;3.40;98.20;;;;;;6205571;23;20538;-73
2023/01/24 11:31:32;;;;;;;1.67;1.40;;;3.40;98.20;;;;;;6203817;23;20679;-71
2023/01/24 11:34:34;;;;;;;1.60;1.30;;;3.50;98.20;;;;;;6202742;23;20834;-72
2023/01/24 11:37:18;;;;;;;1.60;1.30;;;3.50;98.20;;;;;;6182087;23;20937;-73
2023/01/24 11:39:56;;;;;;;1.70;1.50;;;3.60;98.20;;;;;;6205008;23;20407;-73
2023/01/24 11:42:32;;;;;;;1.63;1.33;;;3.60;98.20;;;;;;6204712;23;20426;-73
2023/01/24 11:45:23;;;;;;;1.60;1.30;;;3.70;98.20;;;;;;6215345;23;20445;-73
2023/01/24 11:47:59;;;;;;;1.60;1.30;;;3.70;98.20;;;;;;6201843;23;20495;-72
2023/01/24 11:50:33;;;;;;;1.70;1.50;;;3.60;98.20;;;;;;6204170;23;20411;-73
2023/01/24 11:53:18;;;;;;;4.80;4.40;;;3.60;98.20;;;;;;6205871;23;20496;-73
2023/01/24 11:59:03;;;;;;;1.60;1.30;;;3.60;98.20;;;;;;6202734;23;20414;-73
2023/01/24 12:01:37;;;;;;;1.67;1.30;;;3.70;98.20;;;;;;6205093;23;20403;-73
2023/01/24 12:04:38;;;;;;;1.60;1.30;;;3.60;98.20;;;;;;6204156;23;20725;-73
2023/01/24 12:07:13;;;;;;;1.63;1.37;;;3.60;98.20;;;;;;6199029;23;20430;-73
2023/01/24 12:09:47;;;;;;;1.60;1.40;;;3.60;98.20;;;;;;6217704;23;20422;-73
2023/01/24 12:12:29;;;;;;;1.70;1.50;;;3.50;98.20;;;;;;6204878;23;20481;-73
2023/01/24 12:15:37;;;;;;;1.60;1.37;;;3.50;98.20;;;;;;6216422;23;20439;-72
2023/01/24 12:18:27;;;;;;;2.33;2.13;;;3.50;98.20;;;;;;6092276;23;20768;-73
2023/01/24 12:21:08;;;;;;;1.67;1.40;;;3.50;98.20;;;;;;6212193;23;20481;-73
2023/01/24 12:23:45;;;;;;;1.63;1.40;;;3.50;98.20;;;;;;6212956;23;20473;-73
2023/01/24 12:26:18;;;;;;;2.13;1.93;;;3.60;98.20;;;;;;6202810;23;20414;-73
2023/01/24 12:28:56;;;;;;;1.70;1.50;;;3.60;98.20;;;;;;6202017;23;20437;-73
2023/01/24 12:31:32;;;;;;;1.70;1.40;;;3.70;98.20;;;;;;6213736;23;20407;-73
2023/01/24 12:34:05;;;;;;;1.70;1.40;;;3.80;98.20;;;;;;6213073;23;20446;-73
2023/01/24 12:36:40;;;;;;;1.70;1.50;;;3.80;98.20;;;;;;6212753;23;20649;-73
2023/01/24 12:39:16;;;;;;;1.60;1.37;;;3.80;98.20;;;;;;6203417;23;20490;-73
2023/01/24 12:41:48;;;;;;;1.67;1.40;;;3.80;98.20;;;;;;6204098;23;20430;-72
2023/01/24 12:44:26;;;;;;;1.60;1.30;;;3.80;98.20;;;;;;6202606;23;20522;-71
2023/01/24 12:47:12;;;;;;;1.60;1.40;;;3.80;98.20;;;;;;6199994;23;20422;-71
2023/01/24 12:49:49;;;;;;;1.63;1.30;;;3.80;98.20;;;;;;6205024;23;20415;-72
2023/01/24 12:52:23;;;;;;;1.60;1.40;;;3.90;98.20;;;;;;6204840;23;20810;-72
2023/01/24 12:55:05;;;;;;;1.70;1.40;;;3.80;98.20;;;;;;6202113;23;20529;-72
2023/01/24 12:57:40;;;;;;;1.70;1.40;;;3.80;98.20;;;;;;6199875;23;20429;-73
2023/01/24 13:00:17;;;;;;;1.63;1.40;;;3.90;98.20;;;;;;6200047;23;20482;-72
2023/01/24 13:03:25;;;;;;;1.70;1.50;;;3.90;98.20;;;;;;6201236;23;20435;-72
2023/01/24 13:06:02;;;;;;;1.67;1.40;;;4.00;98.20;;;;;;6200355;23;20443;-72
2023/01/24 13:08:39;;;;;;;1.60;1.30;;;4.10;98.20;;;;;;6200216;23;20439;-72
2023/01/24 13:11:19;;;;;;;1.60;1.37;;;4.10;98.20;;;;;;6208983;23;20426;-72
2023/01/24 13:13:57;;;;;;;1.60;1.40;;;4.00;98.20;;;;;;6211507;23;20443;-73
2023/01/24 13:16:44;;;;;;;1.60;1.40;;;4.00;98.20;;;;;;6200805;23;20407;-73
2023/01/24 13:19:25;;;;;;;1.60;1.30;;;4.00;98.20;;;;;;6216339;23;20894;-72
2023/01/24 13:22:00;;;;;;;1.60;1.30;;;4.00;98.20;;;;;;6202707;23;20494;-72
2023/01/24 13:24:48;;;;;;;1.70;1.53;;;4.00;98.20;;;;;;6212233;23;20529;-72
2023/01/24 13:27:41;;;;;;;1.70;1.40;;;4.00;98.20;;;;;;6201694;23;20840;-71
2023/01/24 13:30:30;;;;;;;1.60;1.40;;;4.00;98.20;;;;;;6214436;23;20435;-73
2023/01/24 13:33:02;;;;;;;3.77;3.47;;;4.00;98.20;;;;;;6203620;23;20853;-73
2023/01/24 13:35:31;;;;;;;1.63;1.30;;;4.00;98.20;;;;;;6202557;23;20443;-73
2023/01/24 13:38:05;;;;;;;1.70;1.50;;;4.00;98.20;;;;;;6202512;23;20497;-73
2023/01/24 13:40:35;;;;;;;1.70;1.40;;;4.10;98.20;;;;;;6202020;23;20436;-73
2023/01/24 13:43:03;;;;;;;1.60;1.30;;;4.10;98.20;;;;;;6202642;23;20609;-72
2023/01/24 13:45:50;;;;;;;1.67;1.37;;;4.10;98.20;;;;;;6204371;23;20447;-73
2023/01/24 13:48:57;;;;;;;1.63;1.40;;;4.00;98.20;;;;;;6213840;23;20725;-75
2023/01/24 13:51:44;;;;;;;1.67;1.40;;;4.00;98.20;;;;;;6204923;23;20727;-74
2023/01/24 13:54:25;;;;;;;1.90;1.80;;;4.00;98.20;;;;;;6214799;23;20461;-73
2023/01/24 13:57:38;;;;;;;;;;;;;;;;;;;;;
2023/01/24 14:00:20;;;;;;;1.63;1.33;;;4.00;98.20;;;;;;6176977;23;20437;-73
2023/01/24 14:03:15;;;;;;;1.60;1.30;;;4.00;98.20;;;;;;6210727;23;20426;-74
2023/01/24 14:05:51;;;;;;;1.70;1.40;;;4.00;98.20;;;;;;6204224;23;20449;-73
2023/01/24 14:08:47;;;;;;;1.70;1.40;;;4.00;98.20;;;;;;6201258;23;20407;-72
2023/01/24 14:11:30;;;;;;;1.60;1.30;;;4.00;98.20;;;;;;6201841;23;20807;-72
2023/01/24 14:14:22;;;;;;;1.70;1.50;;;3.90;98.20;;;;;;6202978;23;20495;-73
2023/01/24 14:17:27;;;;;;;1.63;1.30;;;3.90;98.20;;;;;;6201094;23;20446;-73
2023/01/24 14:19:58;;;;;;;1.63;1.40;;;3.80;98.20;;;;;;6211596;23;20453;-73
2023/01/24 14:22:45;;;;;;;1.60;1.30;;;3.80;98.20;;;;;;6202818;23;20403;-73
2023/01/24 14:25:35;;;;;;;1.60;1.37;;;3.80;98.20;;;;;;6187475;23;20471;-73
2023/01/24 14:28:10;;;;;;;1.70;1.57;;;3.70;98.20;;;;;;6172054;23;20420;-73